Gainesville, Florida
Current Conditions -  °F | °C
As of 12:53 PM on Thursday 23 Oct 2014 (Local Time) from KGNV Reporting Station
Clear Clear  
Wind Chill: 23°   Ceiling: Unl
Heat Index: 23°   Visibility: 10mi
Dew Point:   Wind: 12mph
Humidity: 40%   Direction: 40°NE
Pressure: 30.06"   Gusts: 17mph
Location:  29.65°N, 82.32°W
Report Text: KGNV 231653Z 04010G15KT 10SM CLR 23/09 A3006 RMK AO2 SLP177 T02330089
Loading
Personal Weather Stations






























Interactive Weather Map
Tropical Storm Tracking
New forecast layout! Learn more

10-Day Weather Forecast

Advertisements
Track Severe Weather on mobile